sensor_id;sensor_type;location;lat;lon;timestamp;temperature;humidity
61765;DHT22;50188;48.114;-1.388;2022-09-13T00:00:35;23.90;61.20
61765;DHT22;50188;48.114;-1.388;2022-09-13T00:03:01;23.90;61.30
61765;DHT22;50188;48.114;-1.388;2022-09-13T00:05:27;23.90;61.40
61765;DHT22;50188;48.114;-1.388;2022-09-13T00:07:53;23.90;61.50
61765;DHT22;50188;48.114;-1.388;2022-09-13T00:10:19;23.90;61.70
61765;DHT22;50188;48.114;-1.388;2022-09-13T00:12:46;23.90;61.40
61765;DHT22;50188;48.114;-1.388;2022-09-13T00:15:12;23.90;61.80
61765;DHT22;50188;48.114;-1.388;2022-09-13T00:17:38;23.90;61.60
61765;DHT22;50188;48.114;-1.388;2022-09-13T00:20:04;23.90;61.70
61765;DHT22;50188;48.114;-1.388;2022-09-13T00:22:29;23.90;61.80
61765;DHT22;50188;48.114;-1.388;2022-09-13T00:24:55;23.90;61.70
61765;DHT22;50188;48.114;-1.388;2022-09-13T00:27:21;23.90;61.70
61765;DHT22;50188;48.114;-1.388;2022-09-13T00:29:46;23.90;61.90
61765;DHT22;50188;48.114;-1.388;2022-09-13T00:32:12;23.80;61.80
61765;DHT22;50188;48.114;-1.388;2022-09-13T00:34:37;23.90;61.80
61765;DHT22;50188;48.114;-1.388;2022-09-13T00:37:03;23.80;61.80
61765;DHT22;50188;48.114;-1.388;2022-09-13T00:39:29;23.80;61.80
61765;DHT22;50188;48.114;-1.388;2022-09-13T00:41:55;23.80;62.10
61765;DHT22;50188;48.114;-1.388;2022-09-13T00:44:54;23.80;62.10
61765;DHT22;50188;48.114;-1.388;2022-09-13T00:47:46;23.80;62.10
61765;DHT22;50188;48.114;-1.388;2022-09-13T00:50:22;23.80;62.20
61765;DHT22;50188;48.114;-1.388;2022-09-13T00:52:54;23.80;62.30
61765;DHT22;50188;48.114;-1.388;2022-09-13T00:55:34;23.70;62.40
61765;DHT22;50188;48.114;-1.388;2022-09-13T00:58:05;23.70;62.30
61765;DHT22;50188;48.114;-1.388;2022-09-13T01:00:32;23.70;62.30
61765;DHT22;50188;48.114;-1.388;2022-09-13T01:03:01;23.80;62.30
61765;DHT22;50188;48.114;-1.388;2022-09-13T01:05:33;23.70;62.50
61765;DHT22;50188;48.114;-1.388;2022-09-13T01:08:00;23.80;62.50
61765;DHT22;50188;48.114;-1.388;2022-09-13T01:10:26;23.70;62.60
61765;DHT22;50188;48.114;-1.388;2022-09-13T01:13:08;23.80;63.10
61765;DHT22;50188;48.114;-1.388;2022-09-13T01:15:39;23.70;63.20
61765;DHT22;50188;48.114;-1.388;2022-09-13T01:18:06;23.70;63.50
61765;DHT22;50188;48.114;-1.388;2022-09-13T01:24:05;23.70;64.80
61765;DHT22;50188;48.114;-1.388;2022-09-13T01:33:03;23.60;66.30
61765;DHT22;50188;48.114;-1.388;2022-09-13T01:35:53;23.60;65.80
61765;DHT22;50188;48.114;-1.388;2022-09-13T01:38:41;23.50;65.90
61765;DHT22;50188;48.114;-1.388;2022-09-13T01:41:43;23.50;66.90
61765;DHT22;50188;48.114;-1.388;2022-09-13T01:44:41;23.50;65.70
61765;DHT22;50188;48.114;-1.388;2022-09-13T01:47:32;23.40;66.50
61765;DHT22;50188;48.114;-1.388;2022-09-13T01:50:21;23.40;66.40
61765;DHT22;50188;48.114;-1.388;2022-09-13T01:52:57;23.40;66.80
61765;DHT22;50188;48.114;-1.388;2022-09-13T01:55:42;23.40;66.60
61765;DHT22;50188;48.114;-1.388;2022-09-13T01:58:27;23.40;67.80
61765;DHT22;50188;48.114;-1.388;2022-09-13T02:01:06;23.20;68.00
61765;DHT22;50188;48.114;-1.388;2022-09-13T02:03:36;23.20;69.40
61765;DHT22;50188;48.114;-1.388;2022-09-13T02:06:09;23.10;68.80
61765;DHT22;50188;48.114;-1.388;2022-09-13T02:08:42;23.10;68.90
61765;DHT22;50188;48.114;-1.388;2022-09-13T02:11:12;23.20;68.60
61765;DHT22;50188;48.114;-1.388;2022-09-13T02:13:56;23.10;70.20
61765;DHT22;50188;48.114;-1.388;2022-09-13T02:16:30;23.10;69.00
61765;DHT22;50188;48.114;-1.388;2022-09-13T02:19:04;23.20;68.50
61765;DHT22;50188;48.114;-1.388;2022-09-13T02:21:34;23.10;68.70
61765;DHT22;50188;48.114;-1.388;2022-09-13T02:24:10;23.10;68.20
61765;DHT22;50188;48.114;-1.388;2022-09-13T02:26:39;23.10;68.40
61765;DHT22;50188;48.114;-1.388;2022-09-13T02:29:11;23.10;68.40
61765;DHT22;50188;48.114;-1.388;2022-09-13T02:34:33;23.10;70.90
61765;DHT22;50188;48.114;-1.388;2022-09-13T02:37:02;23.10;69.60
61765;DHT22;50188;48.114;-1.388;2022-09-13T02:39:30;23.10;69.30
61765;DHT22;50188;48.114;-1.388;2022-09-13T02:42:14;23.00;68.40
61765;DHT22;50188;48.114;-1.388;2022-09-13T02:44:46;23.00;68.20
61765;DHT22;50188;48.114;-1.388;2022-09-13T02:47:29;23.00;68.00
61765;DHT22;50188;48.114;-1.388;2022-09-13T02:53:11;22.90;68.30
61765;DHT22;50188;48.114;-1.388;2022-09-13T02:55:51;22.90;68.80
61765;DHT22;50188;48.114;-1.388;2022-09-13T02:58:35;22.80;68.60
61765;DHT22;50188;48.114;-1.388;2022-09-13T03:01:02;22.70;69.50
61765;DHT22;50188;48.114;-1.388;2022-09-13T03:03:28;22.60;70.00
61765;DHT22;50188;48.114;-1.388;2022-09-13T03:05:53;22.50;71.20
61765;DHT22;50188;48.114;-1.388;2022-09-13T03:08:20;22.40;72.10
61765;DHT22;50188;48.114;-1.388;2022-09-13T03:17:02;22.10;74.50
61765;DHT22;50188;48.114;-1.388;2022-09-13T03:19:52;22.10;74.70
61765;DHT22;50188;48.114;-1.388;2022-09-13T03:25:45;21.90;75.30
61765;DHT22;50188;48.114;-1.388;2022-09-13T03:28:28;22.00;75.80
61765;DHT22;50188;48.114;-1.388;2022-09-13T03:33:55;22.00;75.40
61765;DHT22;50188;48.114;-1.388;2022-09-13T03:39:40;22.00;75.50
61765;DHT22;50188;48.114;-1.388;2022-09-13T03:42:28;22.00;75.40
61765;DHT22;50188;48.114;-1.388;2022-09-13T03:44:56;22.10;75.10
61765;DHT22;50188;48.114;-1.388;2022-09-13T03:47:25;22.10;74.70
61765;DHT22;50188;48.114;-1.388;2022-09-13T03:49:52;22.20;74.70
61765;DHT22;50188;48.114;-1.388;2022-09-13T03:52:19;22.30;74.70
61765;DHT22;50188;48.114;-1.388;2022-09-13T03:54:45;22.30;75.10
61765;DHT22;50188;48.114;-1.388;2022-09-13T03:57:17;22.30;75.10
61765;DHT22;50188;48.114;-1.388;2022-09-13T03:59:47;22.10;75.50
61765;DHT22;50188;48.114;-1.388;2022-09-13T04:02:14;22.10;75.70
61765;DHT22;50188;48.114;-1.388;2022-09-13T04:04:41;22.20;75.50
61765;DHT22;50188;48.114;-1.388;2022-09-13T04:07:09;22.20;75.50
61765;DHT22;50188;48.114;-1.388;2022-09-13T04:09:35;22.30;75.40
61765;DHT22;50188;48.114;-1.388;2022-09-13T04:12:01;22.30;75.80
61765;DHT22;50188;48.114;-1.388;2022-09-13T04:14:26;22.40;74.90
61765;DHT22;50188;48.114;-1.388;2022-09-13T04:16:53;22.30;74.70
61765;DHT22;50188;48.114;-1.388;2022-09-13T04:19:19;22.40;74.50
61765;DHT22;50188;48.114;-1.388;2022-09-13T04:21:49;22.40;74.50
61765;DHT22;50188;48.114;-1.388;2022-09-13T04:24:16;22.40;74.50
61765;DHT22;50188;48.114;-1.388;2022-09-13T04:26:43;22.50;74.50
61765;DHT22;50188;48.114;-1.388;2022-09-13T04:29:09;22.40;74.40
61765;DHT22;50188;48.114;-1.388;2022-09-13T04:31:35;22.40;75.00
61765;DHT22;50188;48.114;-1.388;2022-09-13T04:34:01;22.40;75.70
61765;DHT22;50188;48.114;-1.388;2022-09-13T04:36:27;22.40;75.10
61765;DHT22;50188;48.114;-1.388;2022-09-13T04:38:53;22.30;74.90
61765;DHT22;50188;48.114;-1.388;2022-09-13T04:41:18;22.30;75.50
61765;DHT22;50188;48.114;-1.388;2022-09-13T04:43:48;22.20;75.70
61765;DHT22;50188;48.114;-1.388;2022-09-13T04:46:14;22.10;76.00
61765;DHT22;50188;48.114;-1.388;2022-09-13T04:48:40;22.20;76.20
61765;DHT22;50188;48.114;-1.388;2022-09-13T04:51:05;22.10;76.30
61765;DHT22;50188;48.114;-1.388;2022-09-13T04:53:31;22.10;77.10
61765;DHT22;50188;48.114;-1.388;2022-09-13T04:56:04;22.10;77.50
61765;DHT22;50188;48.114;-1.388;2022-09-13T04:58:31;22.10;77.40
61765;DHT22;50188;48.114;-1.388;2022-09-13T05:01:01;22.00;78.20
61765;DHT22;50188;48.114;-1.388;2022-09-13T05:03:29;21.90;78.60
61765;DHT22;50188;48.114;-1.388;2022-09-13T05:06:01;21.80;78.10
61765;DHT22;50188;48.114;-1.388;2022-09-13T05:08:27;21.80;78.30
61765;DHT22;50188;48.114;-1.388;2022-09-13T05:10:52;21.80;78.90
61765;DHT22;50188;48.114;-1.388;2022-09-13T05:13:18;21.70;78.20
61765;DHT22;50188;48.114;-1.388;2022-09-13T05:15:43;21.70;78.70
61765;DHT22;50188;48.114;-1.388;2022-09-13T05:18:09;21.60;79.10
61765;DHT22;50188;48.114;-1.388;2022-09-13T05:20:34;21.60;79.60
61765;DHT22;50188;48.114;-1.388;2022-09-13T05:23:00;21.60;79.60
61765;DHT22;50188;48.114;-1.388;2022-09-13T05:25:25;21.70;79.40
61765;DHT22;50188;48.114;-1.388;2022-09-13T05:27:51;21.70;79.20
61765;DHT22;50188;48.114;-1.388;2022-09-13T05:30:17;21.70;79.80
61765;DHT22;50188;48.114;-1.388;2022-09-13T05:32:42;21.60;79.30
61765;DHT22;50188;48.114;-1.388;2022-09-13T05:35:08;21.60;78.70
61765;DHT22;50188;48.114;-1.388;2022-09-13T05:37:33;21.60;79.20
61765;DHT22;50188;48.114;-1.388;2022-09-13T05:39:59;21.70;79.10
61765;DHT22;50188;48.114;-1.388;2022-09-13T05:42:25;21.70;79.10
61765;DHT22;50188;48.114;-1.388;2022-09-13T05:44:50;21.60;79.90
61765;DHT22;50188;48.114;-1.388;2022-09-13T05:47:16;21.50;80.30
61765;DHT22;50188;48.114;-1.388;2022-09-13T05:49:41;21.50;80.30
61765;DHT22;50188;48.114;-1.388;2022-09-13T05:52:07;21.50;79.60
61765;DHT22;50188;48.114;-1.388;2022-09-13T05:54:32;21.50;79.60
61765;DHT22;50188;48.114;-1.388;2022-09-13T05:56:58;21.60;80.00
61765;DHT22;50188;48.114;-1.388;2022-09-13T05:59:24;21.60;79.60
61765;DHT22;50188;48.114;-1.388;2022-09-13T06:01:49;21.60;79.30
61765;DHT22;50188;48.114;-1.388;2022-09-13T06:04:15;21.60;79.60
61765;DHT22;50188;48.114;-1.388;2022-09-13T06:06:41;21.60;79.40
61765;DHT22;50188;48.114;-1.388;2022-09-13T06:09:06;21.60;79.50
61765;DHT22;50188;48.114;-1.388;2022-09-13T06:11:33;21.60;79.40
61765;DHT22;50188;48.114;-1.388;2022-09-13T06:13:59;21.60;79.60
61765;DHT22;50188;48.114;-1.388;2022-09-13T06:16:24;21.60;79.50
61765;DHT22;50188;48.114;-1.388;2022-09-13T06:18:50;21.60;79.40
61765;DHT22;50188;48.114;-1.388;2022-09-13T06:21:18;21.70;79.40
61765;DHT22;50188;48.114;-1.388;2022-09-13T06:23:45;21.70;79.40
61765;DHT22;50188;48.114;-1.388;2022-09-13T06:26:12;21.70;79.50
61765;DHT22;50188;48.114;-1.388;2022-09-13T06:28:39;21.70;79.80
61765;DHT22;50188;48.114;-1.388;2022-09-13T06:31:07;21.70;79.80
61765;DHT22;50188;48.114;-1.388;2022-09-13T06:33:34;21.70;80.00
61765;DHT22;50188;48.114;-1.388;2022-09-13T06:36:06;21.70;79.70
61765;DHT22;50188;48.114;-1.388;2022-09-13T06:38:32;21.70;79.40
61765;DHT22;50188;48.114;-1.388;2022-09-13T06:41:05;21.80;79.50
61765;DHT22;50188;48.114;-1.388;2022-09-13T06:43:32;21.90;79.30
61765;DHT22;50188;48.114;-1.388;2022-09-13T06:46:00;21.80;79.20
61765;DHT22;50188;48.114;-1.388;2022-09-13T06:48:26;21.80;79.30
61765;DHT22;50188;48.114;-1.388;2022-09-13T06:50:52;21.80;79.20
61765;DHT22;50188;48.114;-1.388;2022-09-13T06:53:17;21.80;79.30
61765;DHT22;50188;48.114;-1.388;2022-09-13T06:55:43;21.80;79.10
61765;DHT22;50188;48.114;-1.388;2022-09-13T06:58:08;21.90;78.70
61765;DHT22;50188;48.114;-1.388;2022-09-13T07:00:34;21.90;78.50
61765;DHT22;50188;48.114;-1.388;2022-09-13T07:02:59;21.90;78.40
61765;DHT22;50188;48.114;-1.388;2022-09-13T07:05:25;22.00;78.30
61765;DHT22;50188;48.114;-1.388;2022-09-13T07:07:51;22.00;78.70
61765;DHT22;50188;48.114;-1.388;2022-09-13T07:10:17;22.10;78.40
61765;DHT22;50188;48.114;-1.388;2022-09-13T07:12:43;22.10;78.60
61765;DHT22;50188;48.114;-1.388;2022-09-13T07:15:08;22.20;78.50
61765;DHT22;50188;48.114;-1.388;2022-09-13T07:17:34;22.20;78.30
61765;DHT22;50188;48.114;-1.388;2022-09-13T07:20:00;22.20;78.60
61765;DHT22;50188;48.114;-1.388;2022-09-13T07:22:25;22.20;78.40
61765;DHT22;50188;48.114;-1.388;2022-09-13T07:24:52;22.20;78.40
61765;DHT22;50188;48.114;-1.388;2022-09-13T07:27:18;22.30;78.50
61765;DHT22;50188;48.114;-1.388;2022-09-13T07:29:43;22.30;78.30
61765;DHT22;50188;48.114;-1.388;2022-09-13T07:32:09;22.30;78.30
61765;DHT22;50188;48.114;-1.388;2022-09-13T07:34:35;22.20;78.30
61765;DHT22;50188;48.114;-1.388;2022-09-13T07:37:00;22.30;78.50
61765;DHT22;50188;48.114;-1.388;2022-09-13T07:39:26;22.30;78.50
61765;DHT22;50188;48.114;-1.388;2022-09-13T07:41:52;22.30;78.70
61765;DHT22;50188;48.114;-1.388;2022-09-13T07:44:18;22.30;78.60
61765;DHT22;50188;48.114;-1.388;2022-09-13T07:46:44;22.20;78.80
61765;DHT22;50188;48.114;-1.388;2022-09-13T07:49:12;22.30;78.80
61765;DHT22;50188;48.114;-1.388;2022-09-13T07:51:40;22.30;78.70
61765;DHT22;50188;48.114;-1.388;2022-09-13T07:54:10;22.40;79.00
61765;DHT22;50188;48.114;-1.388;2022-09-13T07:56:38;22.20;79.50
61765;DHT22;50188;48.114;-1.388;2022-09-13T07:59:06;22.20;80.10
61765;DHT22;50188;48.114;-1.388;2022-09-13T08:01:37;22.20;80.00
61765;DHT22;50188;48.114;-1.388;2022-09-13T08:04:08;22.30;79.80
61765;DHT22;50188;48.114;-1.388;2022-09-13T08:06:36;22.20;79.90
61765;DHT22;50188;48.114;-1.388;2022-09-13T08:09:03;22.30;81.00
61765;DHT22;50188;48.114;-1.388;2022-09-13T08:11:35;22.30;80.10
61765;DHT22;50188;48.114;-1.388;2022-09-13T08:14:01;22.30;80.50
61765;DHT22;50188;48.114;-1.388;2022-09-13T08:16:28;22.50;80.40
61765;DHT22;50188;48.114;-1.388;2022-09-13T08:18:56;22.60;79.70
61765;DHT22;50188;48.114;-1.388;2022-09-13T08:21:24;22.70;79.30
61765;DHT22;50188;48.114;-1.388;2022-09-13T08:23:54;22.80;79.00
61765;DHT22;50188;48.114;-1.388;2022-09-13T08:26:20;22.90;78.60
61765;DHT22;50188;48.114;-1.388;2022-09-13T08:28:46;22.90;78.60
61765;DHT22;50188;48.114;-1.388;2022-09-13T08:31:14;23.00;78.70
61765;DHT22;50188;48.114;-1.388;2022-09-13T08:33:43;23.00;78.70
61765;DHT22;50188;48.114;-1.388;2022-09-13T08:36:09;23.20;78.10
61765;DHT22;50188;48.114;-1.388;2022-09-13T08:38:35;23.20;77.90
61765;DHT22;50188;48.114;-1.388;2022-09-13T08:41:03;23.30;78.20
61765;DHT22;50188;48.114;-1.388;2022-09-13T08:43:37;23.30;77.90
61765;DHT22;50188;48.114;-1.388;2022-09-13T08:46:17;23.30;77.90
61765;DHT22;50188;48.114;-1.388;2022-09-13T08:48:46;23.40;77.30
61765;DHT22;50188;48.114;-1.388;2022-09-13T08:51:30;23.40;77.30
61765;DHT22;50188;48.114;-1.388;2022-09-13T08:53:57;23.50;77.30
61765;DHT22;50188;48.114;-1.388;2022-09-13T08:56:45;23.60;76.80
61765;DHT22;50188;48.114;-1.388;2022-09-13T08:59:43;23.70;76.70
61765;DHT22;50188;48.114;-1.388;2022-09-13T09:02:27;23.70;76.60
61765;DHT22;50188;48.114;-1.388;2022-09-13T09:05:17;23.70;76.10
61765;DHT22;50188;48.114;-1.388;2022-09-13T09:07:52;23.70;76.20
61765;DHT22;50188;48.114;-1.388;2022-09-13T09:10:32;23.70;76.00
61765;DHT22;50188;48.114;-1.388;2022-09-13T09:13:08;23.70;76.50
61765;DHT22;50188;48.114;-1.388;2022-09-13T09:15:45;23.70;76.50
61765;DHT22;50188;48.114;-1.388;2022-09-13T09:18:17;23.70;76.40
61765;DHT22;50188;48.114;-1.388;2022-09-13T09:20:47;23.70;76.20
61765;DHT22;50188;48.114;-1.388;2022-09-13T09:23:16;23.60;76.60
61765;DHT22;50188;48.114;-1.388;2022-09-13T09:25:42;23.70;76.10
61765;DHT22;50188;48.114;-1.388;2022-09-13T09:28:14;23.70;76.40
61765;DHT22;50188;48.114;-1.388;2022-09-13T09:31:01;23.70;77.10
61765;DHT22;50188;48.114;-1.388;2022-09-13T09:33:39;23.80;76.20
61765;DHT22;50188;48.114;-1.388;2022-09-13T09:36:20;23.80;75.80
61765;DHT22;50188;48.114;-1.388;2022-09-13T09:38:48;23.80;76.20
61765;DHT22;50188;48.114;-1.388;2022-09-13T09:41:29;23.80;76.30
61765;DHT22;50188;48.114;-1.388;2022-09-13T09:44:13;23.90;76.20
61765;DHT22;50188;48.114;-1.388;2022-09-13T09:46:41;24.00;76.50
61765;DHT22;50188;48.114;-1.388;2022-09-13T09:49:29;24.00;76.50
61765;DHT22;50188;48.114;-1.388;2022-09-13T09:52:19;24.10;76.50
61765;DHT22;50188;48.114;-1.388;2022-09-13T09:54:48;24.10;76.30
61765;DHT22;50188;48.114;-1.388;2022-09-13T09:57:14;24.20;76.30
61765;DHT22;50188;48.114;-1.388;2022-09-13T09:59:43;24.10;76.60
61765;DHT22;50188;48.114;-1.388;2022-09-13T10:02:18;24.10;76.70
61765;DHT22;50188;48.114;-1.388;2022-09-13T10:04:54;24.10;77.00
61765;DHT22;50188;48.114;-1.388;2022-09-13T10:07:29;24.20;76.60
61765;DHT22;50188;48.114;-1.388;2022-09-13T10:10:00;24.30;76.30
61765;DHT22;50188;48.114;-1.388;2022-09-13T10:12:31;24.40;75.90
61765;DHT22;50188;48.114;-1.388;2022-09-13T10:15:14;24.30;76.60
61765;DHT22;50188;48.114;-1.388;2022-09-13T10:17:41;24.40;76.60
61765;DHT22;50188;48.114;-1.388;2022-09-13T10:20:20;24.40;76.50
61765;DHT22;50188;48.114;-1.388;2022-09-13T10:23:11;24.30;77.20
61765;DHT22;50188;48.114;-1.388;2022-09-13T10:25:42;24.40;77.40
61765;DHT22;50188;48.114;-1.388;2022-09-13T10:28:15;24.50;77.00
61765;DHT22;50188;48.114;-1.388;2022-09-13T10:30:47;24.40;77.60
61765;DHT22;50188;48.114;-1.388;2022-09-13T10:33:30;24.40;78.00
61765;DHT22;50188;48.114;-1.388;2022-09-13T10:35:59;24.20;78.20
61765;DHT22;50188;48.114;-1.388;2022-09-13T10:38:34;24.30;78.50
61765;DHT22;50188;48.114;-1.388;2022-09-13T10:41:04;24.20;78.50
61765;DHT22;50188;48.114;-1.388;2022-09-13T10:43:31;24.20;78.90
61765;DHT22;50188;48.114;-1.388;2022-09-13T10:45:58;24.20;79.00
61765;DHT22;50188;48.114;-1.388;2022-09-13T10:48:27;24.20;79.50
61765;DHT22;50188;48.114;-1.388;2022-09-13T10:51:42;24.20;79.30
61765;DHT22;50188;48.114;-1.388;2022-09-13T10:54:16;24.20;79.50
61765;DHT22;50188;48.114;-1.388;2022-09-13T10:56:45;24.10;79.80
61765;DHT22;50188;48.114;-1.388;2022-09-13T10:59:27;24.00;79.80
61765;DHT22;50188;48.114;-1.388;2022-09-13T11:05:12;24.00;80.50
61765;DHT22;50188;48.114;-1.388;2022-09-13T11:08:06;23.90;80.80
61765;DHT22;50188;48.114;-1.388;2022-09-13T11:20:03;23.90;82.00
61765;DHT22;50188;48.114;-1.388;2022-09-13T11:22:59;24.00;81.60
61765;DHT22;50188;48.114;-1.388;2022-09-13T11:25:47;24.00;81.70
61765;DHT22;50188;48.114;-1.388;2022-09-13T11:28:47;24.00;81.50
61765;DHT22;50188;48.114;-1.388;2022-09-13T11:31:33;24.00;81.30
61765;DHT22;50188;48.114;-1.388;2022-09-13T11:34:28;24.00;81.40
61765;DHT22;50188;48.114;-1.388;2022-09-13T11:37:24;24.10;82.00
61765;DHT22;50188;48.114;-1.388;2022-09-13T11:46:08;24.30;81.20
61765;DHT22;50188;48.114;-1.388;2022-09-13T11:48:47;24.30;80.60
61765;DHT22;50188;48.114;-1.388;2022-09-13T11:51:40;24.30;80.30
61765;DHT22;50188;48.114;-1.388;2022-09-13T11:54:32;24.30;79.90
61765;DHT22;50188;48.114;-1.388;2022-09-13T11:57:05;24.30;80.50
61765;DHT22;50188;48.114;-1.388;2022-09-13T11:59:48;24.30;79.80
61765;DHT22;50188;48.114;-1.388;2022-09-13T12:02:28;24.40;80.00
61765;DHT22;50188;48.114;-1.388;2022-09-13T12:05:04;24.40;80.00
61765;DHT22;50188;48.114;-1.388;2022-09-13T12:07:39;24.40;79.60
61765;DHT22;50188;48.114;-1.388;2022-09-13T12:10:15;24.40;79.30
61765;DHT22;50188;48.114;-1.388;2022-09-13T12:12:42;24.40;79.70
61765;DHT22;50188;48.114;-1.388;2022-09-13T12:15:22;24.50;79.30
61765;DHT22;50188;48.114;-1.388;2022-09-13T12:17:57;24.50;79.40
61765;DHT22;50188;48.114;-1.388;2022-09-13T12:20:37;24.60;79.40
61765;DHT22;50188;48.114;-1.388;2022-09-13T12:23:10;24.60;79.50
61765;DHT22;50188;48.114;-1.388;2022-09-13T12:25:49;24.60;79.40
61765;DHT22;50188;48.114;-1.388;2022-09-13T12:28:22;24.60;80.10
61765;DHT22;50188;48.114;-1.388;2022-09-13T12:31:06;24.60;79.70
61765;DHT22;50188;48.114;-1.388;2022-09-13T12:33:38;24.60;79.60
61765;DHT22;50188;48.114;-1.388;2022-09-13T12:39:37;24.60;79.60
61765;DHT22;50188;48.114;-1.388;2022-09-13T12:42:31;24.70;79.30
61765;DHT22;50188;48.114;-1.388;2022-09-13T12:45:17;24.70;78.90
61765;DHT22;50188;48.114;-1.388;2022-09-13T12:48:09;25.20;79.60
61765;DHT22;50188;48.114;-1.388;2022-09-13T12:51:05;25.50;77.80
61765;DHT22;50188;48.114;-1.388;2022-09-13T12:54:01;25.50;77.10
61765;DHT22;50188;48.114;-1.388;2022-09-13T12:56:55;25.80;76.10
61765;DHT22;50188;48.114;-1.388;2022-09-13T13:02:35;26.00;76.00
61765;DHT22;50188;48.114;-1.388;2022-09-13T13:05:29;26.30;73.70
61765;DHT22;50188;48.114;-1.388;2022-09-13T13:08:00;26.40;73.10
61765;DHT22;50188;48.114;-1.388;2022-09-13T13:10:31;26.50;72.10
61765;DHT22;50188;48.114;-1.388;2022-09-13T13:13:22;26.80;72.20
61765;DHT22;50188;48.114;-1.388;2022-09-13T13:15:56;26.70;71.60
61765;DHT22;50188;48.114;-1.388;2022-09-13T13:18:31;26.70;70.90
61765;DHT22;50188;48.114;-1.388;2022-09-13T13:21:34;26.80;71.70
61765;DHT22;50188;48.114;-1.388;2022-09-13T13:27:36;27.20;69.40
61765;DHT22;50188;48.114;-1.388;2022-09-13T13:30:41;27.10;69.40
61765;DHT22;50188;48.114;-1.388;2022-09-13T13:33:20;26.90;69.40
61765;DHT22;50188;48.114;-1.388;2022-09-13T13:35:47;27.00;70.10
61765;DHT22;50188;48.114;-1.388;2022-09-13T13:38:32;27.00;69.90
61765;DHT22;50188;48.114;-1.388;2022-09-13T13:41:35;27.10;70.00
61765;DHT22;50188;48.114;-1.388;2022-09-13T13:50:15;27.40;68.90
61765;DHT22;50188;48.114;-1.388;2022-09-13T13:52:51;27.50;68.50
61765;DHT22;50188;48.114;-1.388;2022-09-13T13:55:41;27.50;71.50
61765;DHT22;50188;48.114;-1.388;2022-09-13T13:58:32;27.70;68.70
61765;DHT22;50188;48.114;-1.388;2022-09-13T14:01:03;27.70;68.90
61765;DHT22;50188;48.114;-1.388;2022-09-13T14:04:02;27.70;68.10
61765;DHT22;50188;48.114;-1.388;2022-09-13T14:06:45;27.90;67.00
61765;DHT22;50188;48.114;-1.388;2022-09-13T14:09:34;28.00;67.90
61765;DHT22;50188;48.114;-1.388;2022-09-13T14:12:31;28.00;66.70
61765;DHT22;50188;48.114;-1.388;2022-09-13T14:15:18;27.90;67.00
61765;DHT22;50188;48.114;-1.388;2022-09-13T14:18:08;27.90;66.80
61765;DHT22;50188;48.114;-1.388;2022-09-13T14:20:58;27.80;67.50
61765;DHT22;50188;48.114;-1.388;2022-09-13T14:23:23;27.70;68.30
61765;DHT22;50188;48.114;-1.388;2022-09-13T14:25:54;27.60;68.60
61765;DHT22;50188;48.114;-1.388;2022-09-13T14:28:22;27.40;69.10
61765;DHT22;50188;48.114;-1.388;2022-09-13T14:30:55;27.40;69.30
61765;DHT22;50188;48.114;-1.388;2022-09-13T14:33:31;27.40;69.60
61765;DHT22;50188;48.114;-1.388;2022-09-13T14:36:04;27.30;70.60
61765;DHT22;50188;48.114;-1.388;2022-09-13T14:38:32;27.30;70.00
61765;DHT22;50188;48.114;-1.388;2022-09-13T14:41:13;27.20;70.00
61765;DHT22;50188;48.114;-1.388;2022-09-13T14:43:39;27.20;70.00
61765;DHT22;50188;48.114;-1.388;2022-09-13T14:46:14;27.20;70.50
61765;DHT22;50188;48.114;-1.388;2022-09-13T14:48:48;27.10;70.60
61765;DHT22;50188;48.114;-1.388;2022-09-13T14:51:23;27.00;71.10
61765;DHT22;50188;48.114;-1.388;2022-09-13T14:54:04;26.80;71.70
61765;DHT22;50188;48.114;-1.388;2022-09-13T14:56:48;26.80;72.50
61765;DHT22;50188;48.114;-1.388;2022-09-13T14:59:26;26.70;72.80
61765;DHT22;50188;48.114;-1.388;2022-09-13T15:01:53;26.60;73.40
61765;DHT22;50188;48.114;-1.388;2022-09-13T15:04:19;26.60;73.90
61765;DHT22;50188;48.114;-1.388;2022-09-13T15:07:05;26.50;74.40
61765;DHT22;50188;48.114;-1.388;2022-09-13T15:09:32;26.50;74.60
61765;DHT22;50188;48.114;-1.388;2022-09-13T15:11:59;26.50;75.00
61765;DHT22;50188;48.114;-1.388;2022-09-13T15:14:31;26.50;75.30
61765;DHT22;50188;48.114;-1.388;2022-09-13T15:17:12;26.40;75.80
61765;DHT22;50188;48.114;-1.388;2022-09-13T15:19:42;26.40;76.00
61765;DHT22;50188;48.114;-1.388;2022-09-13T15:22:17;26.30;76.80
61765;DHT22;50188;48.114;-1.388;2022-09-13T15:24:47;26.30;78.00
61765;DHT22;50188;48.114;-1.388;2022-09-13T15:27:27;26.30;79.00
61765;DHT22;50188;48.114;-1.388;2022-09-13T15:29:58;26.30;78.60
61765;DHT22;50188;48.114;-1.388;2022-09-13T15:32:33;26.20;79.30
61765;DHT22;50188;48.114;-1.388;2022-09-13T15:35:00;26.30;78.90
61765;DHT22;50188;48.114;-1.388;2022-09-13T15:37:35;26.30;80.10
61765;DHT22;50188;48.114;-1.388;2022-09-13T15:40:13;26.30;81.40
61765;DHT22;50188;48.114;-1.388;2022-09-13T15:42:39;26.20;80.40
61765;DHT22;50188;48.114;-1.388;2022-09-13T15:45:05;26.10;80.70
61765;DHT22;50188;48.114;-1.388;2022-09-13T15:47:31;26.10;80.20
61765;DHT22;50188;48.114;-1.388;2022-09-13T15:49:56;26.10;80.50
61765;DHT22;50188;48.114;-1.388;2022-09-13T15:52:23;26.10;81.00
61765;DHT22;50188;48.114;-1.388;2022-09-13T15:54:49;26.00;81.20
61765;DHT22;50188;48.114;-1.388;2022-09-13T15:57:21;26.00;81.50
61765;DHT22;50188;48.114;-1.388;2022-09-13T15:59:47;26.00;81.50
61765;DHT22;50188;48.114;-1.388;2022-09-13T16:02:25;25.90;81.10
61765;DHT22;50188;48.114;-1.388;2022-09-13T16:04:52;25.90;80.30
61765;DHT22;50188;48.114;-1.388;2022-09-13T16:07:18;25.90;80.70
61765;DHT22;50188;48.114;-1.388;2022-09-13T16:09:45;25.90;80.40
61765;DHT22;50188;48.114;-1.388;2022-09-13T16:12:10;25.90;80.50
61765;DHT22;50188;48.114;-1.388;2022-09-13T16:14:36;25.90;81.00
61765;DHT22;50188;48.114;-1.388;2022-09-13T16:17:05;25.80;80.80
61765;DHT22;50188;48.114;-1.388;2022-09-13T16:19:31;25.80;81.20
61765;DHT22;50188;48.114;-1.388;2022-09-13T16:21:57;25.80;81.00
61765;DHT22;50188;48.114;-1.388;2022-09-13T16:24:23;25.80;81.00
61765;DHT22;50188;48.114;-1.388;2022-09-13T16:26:48;25.80;81.30
61765;DHT22;50188;48.114;-1.388;2022-09-13T16:29:14;25.80;81.20
61765;DHT22;50188;48.114;-1.388;2022-09-13T16:31:39;25.80;81.20
61765;DHT22;50188;48.114;-1.388;2022-09-13T16:34:05;25.80;81.10
61765;DHT22;50188;48.114;-1.388;2022-09-13T16:36:31;25.80;81.10
61765;DHT22;50188;48.114;-1.388;2022-09-13T16:38:58;25.80;81.30
61765;DHT22;50188;48.114;-1.388;2022-09-13T16:41:24;25.80;81.00
61765;DHT22;50188;48.114;-1.388;2022-09-13T16:43:50;25.80;81.00
61765;DHT22;50188;48.114;-1.388;2022-09-13T16:46:18;25.80;81.70
61765;DHT22;50188;48.114;-1.388;2022-09-13T16:48:44;25.80;82.50
61765;DHT22;50188;48.114;-1.388;2022-09-13T16:51:11;25.80;82.60
61765;DHT22;50188;48.114;-1.388;2022-09-13T16:53:39;25.80;82.20
61765;DHT22;50188;48.114;-1.388;2022-09-13T16:56:07;25.80;82.20